Time;durP1;ratioP1;P1;durP2;ratioP2;P2;SDS_P1;SDS_P2;PMS_P1;PMS_P2;Temp;Humidity;BMP_temperature;BMP_pressure;BME280_temperature;BME280_humidity;BME280_pressure;Samples;Min_cycle;Max_cycle;Signal;HPM_P1;HPM_P2
2022/12/22 03:25:56;;;;;;;;;;;;;;;28.04;47.58;97079.48;610049;230;64455;-72
2022/12/22 03:28:21;;;;;;;;;;;;;;;28.05;45.66;97077.60;609737;231;66393;-72
2022/12/22 03:30:53;;;;;;;;;;;;;;;28.03;47.33;97083.30;610138;232;65284;-72
2022/12/22 03:33:21;;;;;;;;;;;;;;;28.03;47.17;97069.02;610075;232;66664;-72
2022/12/22 03:35:48;;;;;;;;;;;;;;;28.01;46.69;97080.12;610067;232;66584;-73
2022/12/22 03:38:16;;;;;;;;;;;;;;;28.01;46.26;97082.81;610076;232;65085;-72
2022/12/22 03:40:44;;;;;;;;;;;;;;;27.99;46.91;97087.77;610048;232;66734;-72
2022/12/22 03:51:32;;;;;;;;;;;;;;;27.95;45.84;97094.89;610023;232;67114;-72
2022/12/22 03:54:00;;;;;;;;;;;;;;;27.94;46.26;97098.71;610002;232;65297;-72
2022/12/22 03:56:27;;;;;;;;;;;;;;;27.93;45.74;97094.41;610041;232;66855;-72
2022/12/22 03:58:55;;;;;;;;;;;;;;;27.93;46.12;97096.31;610044;232;66697;-72
2022/12/22 04:01:22;;;;;;;;;;;;;;;27.92;45.67;97100.13;610079;232;62996;-72
2022/12/22 04:03:50;;;;;;;;;;;;;;;27.91;47.22;97098.52;610045;232;64574;-72
2022/12/22 04:06:17;;;;;;;;;;;;;;;27.89;46.54;97090.75;610041;232;64755;-67
2022/12/22 04:08:45;;;;;;;;;;;;;;;27.89;46.47;97090.75;610056;232;63016;-72
2022/12/22 04:13:58;;;;;;;;;;;;;;;27.88;46.05;97089.14;610045;232;64649;-73
2022/12/22 04:16:26;;;;;;;;;;;;;;;27.86;46.26;97094.08;610057;232;62929;-73
2022/12/22 04:18:53;;;;;;;;;;;;;;;27.85;47.47;97100.58;609997;232;64624;-72
2022/12/22 04:21:21;;;;;;;;;;;;;;;27.84;47.20;97099.79;610055;232;64648;-72
2022/12/22 04:23:51;;;;;;;;;;;;;;;27.81;46.15;97094.23;610022;232;62998;-72
2022/12/22 04:26:20;;;;;;;;;;;;;;;27.81;47.36;97091.53;610044;232;64568;-72
2022/12/22 04:28:47;;;;;;;;;;;;;;;27.80;46.35;97093.44;611878;231;64717;-72
2022/12/22 04:31:15;;;;;;;;;;;;;;;27.80;46.60;97088.03;613397;231;63018;-72
2022/12/22 04:33:43;;;;;;;;;;;;;;;27.78;46.75;97084.81;613385;231;64889;-72
2022/12/22 04:36:10;;;;;;;;;;;;;;;27.77;47.45;97085.12;613175;231;64935;-73
2022/12/22 04:38:38;;;;;;;;;;;;;;;27.75;47.45;97090.84;613420;231;65043;-72
2022/12/22 04:41:06;;;;;;;;;;;;;;;27.74;45.88;97089.23;613423;231;67279;-72
2022/12/22 04:43:33;;;;;;;;;;;;;;;27.74;46.58;97091.15;613418;231;67057;-72
2022/12/22 04:46:01;;;;;;;;;;;;;;;27.73;48.53;97093.05;613382;231;65269;-73
2022/12/22 04:48:29;;;;;;;;;;;;;;;27.71;47.31;97087.16;613111;231;67268;-67
2022/12/22 04:50:58;;;;;;;;;;;;;;;27.71;47.42;97089.08;613392;231;66915;-67
2022/12/22 04:53:26;;;;;;;;;;;;;;;27.69;47.29;97089.37;613375;231;64884;-67
2022/12/22 04:56:01;;;;;;;;;;;;;;;27.67;48.03;97095.11;613396;231;67076;-67
2022/12/22 04:58:29;;;;;;;;;;;;;;;27.67;48.03;97102.42;613147;231;64772;-66
2022/12/22 05:00:57;;;;;;;;;;;;;;;27.65;47.47;97102.72;613175;231;65107;-72
2022/12/22 05:03:24;;;;;;;;;;;;;;;27.65;47.69;97096.52;613362;231;68004;-72
2022/12/22 05:05:52;;;;;;;;;;;;;;;27.64;45.70;97103.83;613374;231;65383;-72
2022/12/22 05:08:19;;;;;;;;;;;;;;;27.62;45.48;97095.24;613422;231;63026;-72
2022/12/22 05:10:47;;;;;;;;;;;;;;;27.61;45.14;97096.36;613398;231;64983;-72
2022/12/22 05:13:14;;;;;;;;;;;;;;;27.60;48.22;97094.75;613388;231;64903;-72
2022/12/22 05:15:42;;;;;;;;;;;;;;;27.59;47.65;97101.27;613374;231;65229;-66
2022/12/22 05:18:11;;;;;;;;;;;;;;;27.57;47.14;97089.19;613417;231;64869;-67
2022/12/22 05:20:38;;;;;;;;;;;;;;;27.58;46.62;97098.87;613464;231;64974;-67
2022/12/22 05:23:06;;;;;;;;;;;;;;;27.54;46.76;97096.01;613391;231;62795;-67
2022/12/22 05:25:33;;;;;;;;;;;;;;;27.54;46.74;97096.01;613380;231;64755;-67
2022/12/22 05:28:01;;;;;;;;;;;;;;;27.53;48.32;97094.42;612634;231;66873;-67
2022/12/22 05:30:29;;;;;;;;;;;;;;;27.53;47.09;97089.03;609993;232;65024;-67
2022/12/22 05:32:56;;;;;;;;;;;;;;;27.53;48.40;97093.61;610030;232;67383;-67
2022/12/22 05:35:24;;;;;;;;;;;;;;;27.51;48.78;97093.94;610090;232;66940;-67
2022/12/22 05:37:51;;;;;;;;;;;;;;;27.51;47.68;97091.23;610033;232;65058;-67
2022/12/22 05:40:19;;;;;;;;;;;;;;;27.48;47.22;97083.77;610011;232;67106;-67
2022/12/22 05:42:46;;;;;;;;;;;;;;;27.50;48.84;97084.26;609996;232;67012;-67
2022/12/22 05:45:15;;;;;;;;;;;;;;;27.49;47.32;97087.25;609918;232;65106;-69
2022/12/22 05:47:43;;;;;;;;;;;;;;;27.47;46.74;97079.45;610040;232;64909;-66
2022/12/22 05:50:11;;;;;;;;;;;;;;;27.49;47.25;97077.25;609976;232;64808;-66
2022/12/22 05:52:39;;;;;;;;;;;;;;;27.48;47.29;97091.86;609832;232;64633;-66
2022/12/22 05:55:07;;;;;;;;;;;;;;;27.48;47.88;97086.47;609985;232;67056;-66
2022/12/22 05:57:35;;;;;;;;;;;;;;;27.48;47.71;97083.77;610087;232;64841;-66
2022/12/22 06:00:04;;;;;;;;;;;;;;;27.48;48.32;97078.37;609997;232;62948;-66
2022/12/22 06:02:34;;;;;;;;;;;;;;;27.48;47.89;97075.67;609715;232;48360;-66
2022/12/22 06:05:01;;;;;;;;;;;;;;;27.49;48.06;97087.25;609855;232;67016;-66
2022/12/22 06:07:29;;;;;;;;;;;;;;;27.49;48.76;97089.95;609892;232;64720;-69
2022/12/22 06:09:56;;;;;;;;;;;;;;;27.49;48.72;97090.75;610072;232;67019;-66
2022/12/22 06:12:24;;;;;;;;;;;;;;;27.49;48.71;97093.44;610025;232;66783;-68
2022/12/22 06:14:51;;;;;;;;;;;;;;;27.48;49.64;97089.16;609905;232;64988;-69
2022/12/22 06:17:19;;;;;;;;;;;;;;;27.48;48.77;97089.16;610021;232;67194;-69
2022/12/22 06:19:46;;;;;;;;;;;;;;;27.48;47.30;97089.16;609864;232;67448;-66
2022/12/22 06:22:14;;;;;;;;;;;;;;;27.50;48.69;97105.85;609934;232;65211;-67
2022/12/22 06:24:41;;;;;;;;;;;;;;;27.48;48.41;97099.96;609985;232;67192;-69
2022/12/22 06:27:09;;;;;;;;;;;;;;;27.51;48.30;97095.84;610049;232;64936;-69
2022/12/22 06:29:37;;;;;;;;;;;;;;;27.51;46.97;97107.43;613012;231;65130;-66
2022/12/22 06:32:05;;;;;;;;;;;;;;;27.51;48.11;97107.43;613030;231;64901;-66
2022/12/22 06:34:32;;;;;;;;;;;;;;;27.51;48.84;97107.43;613426;231;67184;-69
2022/12/22 06:37:00;;;;;;;;;;;;;;;27.52;48.87;97102.83;613448;231;64974;-66
2022/12/22 06:39:27;;;;;;;;;;;;;;;27.52;47.62;97100.91;613390;231;66983;-66
2022/12/22 06:44:40;;;;;;;;;;;;;;;27.53;47.99;97105.22;613083;231;63632;-69
2022/12/22 06:47:08;;;;;;;;;;;;;;;27.55;48.59;97100.29;613359;231;66072;-67
2022/12/22 06:49:35;;;;;;;;;;;;;;;27.56;48.27;97109.20;613432;231;66974;-66
2022/12/22 06:52:02;;;;;;;;;;;;;;;27.56;47.52;97104.59;613420;231;65001;-67
2022/12/22 06:54:30;;;;;;;;;;;;;;;27.57;49.08;97099.98;613313;231;67183;-67
2022/12/22 06:56:59;;;;;;;;;;;;;;;27.58;47.13;97090.77;612772;231;67610;-67
2022/12/22 06:59:26;;;;;;;;;;;;;;;27.58;47.44;97096.98;613318;231;66126;-68
2022/12/22 07:01:54;;;;;;;;;;;;;;;27.57;47.81;97095.38;613428;231;67227;-70
2022/12/22 07:04:21;;;;;;;;;;;;;;;27.57;47.82;97086.49;613216;231;67699;-69
2022/12/22 07:06:49;;;;;;;;;;;;;;;27.57;46.66;97078.39;611146;231;62734;-68
2022/12/22 07:09:16;;;;;;;;;;;;;;;27.57;47.30;97089.98;608694;233;67310;-68
2022/12/22 07:11:44;;;;;;;;;;;;;;;27.57;46.61;97089.98;608734;233;64863;-68
2022/12/22 07:14:11;;;;;;;;;;;;;;;27.58;46.61;97091.59;608701;233;65224;-68
2022/12/22 07:16:39;;;;;;;;;;;;;;;27.59;46.75;97093.17;608593;233;67259;-68
2022/12/22 07:19:06;;;;;;;;;;;;;;;27.60;46.79;97092.05;608759;233;67029;-68
2022/12/22 07:21:34;;;;;;;;;;;;;;;27.60;45.57;97092.05;608794;233;65257;-68
2022/12/22 07:24:01;;;;;;;;;;;;;;;27.61;46.85;97095.55;608527;233;67247;-68
2022/12/22 07:26:29;;;;;;;;;;;;;;;27.63;48.31;97096.03;608785;233;66373;-68
2022/12/22 07:28:57;;;;;;;;;;;;;;;27.63;47.34;97088.73;608828;232;65202;-68
2022/12/22 07:31:27;;;;;;;;;;;;;;;27.65;47.81;97091.91;608467;232;47809;-68
2022/12/22 07:33:54;;;;;;;;;;;;;;;27.66;46.71;97085.42;608677;233;64945;-68
2022/12/22 07:36:22;;;;;;;;;;;;;;;27.67;46.90;97089.70;608813;233;63876;-68
2022/12/22 07:38:50;;;;;;;;;;;;;;;27.71;46.51;97086.38;608735;233;66965;-68
2022/12/22 07:44:05;;;;;;;;;;;;;;;27.72;47.17;97091.48;603890;233;66543;-72
2022/12/22 07:46:37;;;;;;;;;;;;;;;27.73;46.63;97082.25;608768;233;64464;-72
2022/12/22 07:51:51;;;;;;;;;;;;;;;27.75;46.73;97079.25;608764;233;62836;-72
2022/12/22 07:54:18;;;;;;;;;;;;;;;27.74;44.74;97081.14;608777;233;64420;-71
2022/12/22 07:56:46;;;;;;;;;;;;;;;27.74;46.96;97078.44;608664;233;66852;-72
2022/12/22 07:59:14;;;;;;;;;;;;;;;27.74;45.42;97083.05;608746;233;65415;-68
2022/12/22 08:01:41;;;;;;;;;;;;;;;27.74;42.28;97080.34;608722;233;67555;-69
2022/12/22 08:04:10;;;;;;;;;;;;;;;27.78;45.58;97073.22;608693;232;66854;-69
2022/12/22 08:06:37;;;;;;;;;;;;;;;27.79;47.01;97077.50;608074;232;62756;-70
2022/12/22 08:09:06;;;;;;;;;;;;;;;27.80;45.11;97076.41;608655;233;64873;-72
2022/12/22 08:11:34;;;;;;;;;;;;;;;27.77;43.77;97077.02;608830;233;67065;-69
2022/12/22 08:14:01;;;;;;;;;;;;;;;27.77;44.01;97079.72;608728;233;65058;-74
2022/12/22 08:16:29;;;;;;;;;;;;;;;27.77;43.08;97077.02;608728;233;67262;-73
2022/12/22 08:18:56;;;;;;;;;;;;;;;27.75;38.03;97080.05;608764;233;66838;-77
2022/12/22 08:21:24;;;;;;;;;;;;;;;27.80;43.61;97076.41;609925;232;66056;-72
2022/12/22 08:23:51;;;;;;;;;;;;;;;27.80;39.80;97071.83;611983;232;67135;-70
2022/12/22 08:26:23;;;;;;;;;;;;;;;27.80;41.18;97071.83;611732;232;66763;-86
2022/12/22 08:28:52;;;;;;;;;;;;;;;27.75;35.26;97068.45;608213;232;64957;-69
2022/12/22 08:31:24;;;;;;;;;;;;;;;27.80;42.91;97063.73;612078;232;67012;-68
2022/12/22 08:33:52;;;;;;;;;;;;;;;27.79;37.10;97061.30;612008;232;67318;-71
2022/12/22 08:36:19;;;;;;;;;;;;;;;27.80;41.55;97055.62;611929;232;65056;-69
2022/12/22 08:38:47;;;;;;;;;;;;;;;27.81;44.21;97056.42;612055;232;67347;-76
2022/12/22 08:41:48;;;;;;;;;;;;;;;27.83;43.10;97054.21;609544;232;66826;-71
2022/12/22 08:43:45;;;;;;;;;;;;;;;27.85;43.03;97054.66;606582;233;65093;-69
2022/12/22 08:46:12;;;;;;;;;;;;;;;27.86;43.55;97048.17;607142;233;67268;-72
2022/12/22 08:48:40;;;;;;;;;;;;;;;27.88;43.74;97051.33;607806;233;65201;-71
2022/12/22 08:51:07;;;;;;;;;;;;;;;27.88;44.08;97046.75;604919;233;62770;-71
2022/12/22 08:53:35;;;;;;;;;;;;;;;27.91;44.35;97050.73;606743;233;67229;-73
2022/12/22 08:56:03;;;;;;;;;;;;;;;27.92;43.98;97043.41;605250;234;64985;-65
2022/12/22 08:58:30;;;;;;;;;;;;;;;27.93;45.03;97036.89;605463;234;62994;-70
2022/12/22 09:00:58;;;;;;;;;;;;;;;27.94;43.42;97035.77;605474;234;65003;-73
2022/12/22 09:03:25;;;;;;;;;;;;;;;27.93;36.49;97040.38;605493;234;66875;-71
2022/12/22 09:05:54;;;;;;;;;;;;;;;28.00;42.65;97031.83;605453;234;64872;-69
2022/12/22 09:08:23;;;;;;;;;;;;;;;27.98;40.22;97036.74;605179;234;66987;-71
2022/12/22 09:10:51;;;;;;;;;;;;;;;27.97;42.67;97044.06;605345;234;66961;-71
2022/12/22 09:13:18;;;;;;;;;;;;;;;27.96;42.33;97034.34;605460;234;64262;-71
2022/12/22 09:15:46;;;;;;;;;;;;;;;27.99;43.30;97024.81;605427;234;65099;-71
2022/12/22 09:18:15;;;;;;;;;;;;;;;28.01;42.08;97023.39;605241;234;64847;-71
2022/12/22 09:20:42;;;;;;;;;;;;;;;28.04;43.14;97021.97;605350;234;64730;-68
2022/12/22 09:23:10;;;;;;;;;;;;;;;28.04;39.91;97014.65;604629;234;67061;-69
2022/12/22 09:25:38;;;;;;;;;;;;;;;28.06;41.41;97017.05;605481;234;67001;-69
2022/12/22 09:28:09;;;;;;;;;;;;;;;28.05;42.58;97007.36;605444;234;64925;-70
2022/12/22 09:30:36;;;;;;;;;;;;;;;28.05;40.67;97012.77;605610;234;67092;-69
2022/12/22 09:33:04;;;;;;;;;;;;;;;28.07;38.96;97005.94;605496;234;64887;-69
2022/12/22 09:35:31;;;;;;;;;;;;;;;28.10;43.67;96999.08;605521;234;62908;-71
2022/12/22 09:37:59;;;;;;;;;;;;;;;28.11;41.37;97003.38;605469;234;64976;-69
2022/12/22 09:40:26;;;;;;;;;;;;;;;28.13;41.98;97000.34;605485;234;64967;-74
2022/12/22 09:42:54;;;;;;;;;;;;;;;28.14;42.77;96999.25;605565;234;65029;-70
2022/12/22 09:45:21;;;;;;;;;;;;;;;28.15;41.42;96992.73;605465;233;64820;-71
2022/12/22 09:47:52;;;;;;;;;;;;;;;28.15;41.41;97000.83;606987;233;64924;-71
2022/12/22 09:50:27;;;;;;;;;;;;;;;28.16;41.45;96997.03;606246;233;62568;-71
2022/12/22 09:52:53;;;;;;;;;;;;;;;28.17;41.15;96987.81;607705;233;64994;-70
2022/12/22 09:55:25;;;;;;;;;;;;;;;28.17;41.14;96993.21;606820;233;64681;-71
2022/12/22 09:57:53;;;;;;;;;;;;;;;28.17;41.52;96982.41;607242;233;65194;-72
2022/12/22 10:00:28;;;;;;;;;;;;;;;28.17;41.19;96987.81;608184;232;67120;-72
2022/12/22 10:03:06;;;;;;;;;;;;;;;28.14;42.12;96988.45;608405;233;65327;-72
2022/12/22 10:05:44;;;;;;;;;;;;;;;28.11;40.61;96985.27;608130;232;62912;-71
2022/12/22 10:08:13;;;;;;;;;;;;;;;28.11;39.76;96979.07;608692;233;67015;-73
2022/12/22 10:10:40;;;;;;;;;;;;;;;28.09;39.32;96976.67;608777;233;67081;-72
2022/12/22 10:13:09;;;;;;;;;;;;;;;28.08;40.48;96975.09;608773;233;65044;-73
2022/12/22 10:15:38;;;;;;;;;;;;;;;28.06;39.09;96969.21;608563;233;64794;-73
2022/12/22 10:18:10;;;;;;;;;;;;;;;28.07;39.47;96975.40;608746;233;67083;-72
2022/12/22 10:20:38;;;;;;;;;;;;;;;28.05;38.33;96959.53;608839;233;65030;-72
2022/12/22 10:23:17;;;;;;;;;;;;;;;28.05;38.46;96959.53;608711;233;64661;-72
2022/12/22 10:25:58;;;;;;;;;;;;;;;28.04;39.12;96949.81;608770;233;66949;-73
2022/12/22 10:28:30;;;;;;;;;;;;;;;28.04;40.44;96951.73;609305;232;62802;-70
2022/12/22 10:31:14;;;;;;;;;;;;;;;28.02;39.64;96946.66;610103;232;65127;-72
2022/12/22 10:33:43;;;;;;;;;;;;;;;28.03;38.88;96944.75;603574;235;64816;-72
2022/12/22 10:36:10;;;;;;;;;;;;;;;28.05;39.87;96937.92;604953;232;65142;-73
2022/12/22 10:38:39;;;;;;;;;;;;;;;28.08;40.73;96936.48;610279;232;67277;-68
2022/12/22 10:41:14;;;;;;;;;;;;;;;28.08;37.96;96925.68;610191;232;67149;-71
2022/12/22 10:43:49;;;;;;;;;;;;;;;28.11;38.51;96920.42;610338;232;65070;-72
2022/12/22 10:46:18;;;;;;;;;;;;;;;28.13;38.11;96917.41;610370;232;64823;-70
2022/12/22 10:48:45;;;;;;;;;;;;;;;28.15;38.68;96908.97;610361;232;66904;-71
2022/12/22 10:51:14;;;;;;;;;;;;;;;28.14;37.51;96901.99;610385;232;65040;-71
2022/12/22 10:53:55;;;;;;;;;;;;;;;28.14;41.28;96902.78;610394;232;64775;-71
2022/12/22 10:56:27;;;;;;;;;;;;;;;28.14;40.37;96902.78;610367;232;66682;-72
2022/12/22 10:59:12;;;;;;;;;;;;;;;28.16;39.35;96897.07;610339;232;65055;-72
2022/12/22 11:01:40;;;;;;;;;;;;;;;28.17;36.67;96891.33;610412;232;67102;-72
2022/12/22 11:04:18;;;;;;;;;;;;;;;28.18;38.71;96889.42;610340;232;67014;-72
2022/12/22 11:06:45;;;;;;;;;;;;;;;28.20;38.96;96889.89;610234;232;62753;-72
2022/12/22 11:09:13;;;;;;;;;;;;;;;28.20;38.42;96881.79;610360;232;64810;-73
2022/12/22 11:11:48;;;;;;;;;;;;;;;28.20;38.42;96879.09;610285;232;64384;-73
2022/12/22 11:14:17;;;;;;;;;;;;;;;28.21;39.30;96880.66;610412;232;66319;-73
2022/12/22 11:16:52;;;;;;;;;;;;;;;28.22;39.08;96879.56;609521;232;67084;-73
2022/12/22 11:19:24;;;;;;;;;;;;;;;28.21;40.27;96876.08;610243;232;67976;-74
2022/12/22 11:21:53;;;;;;;;;;;;;;;28.23;38.18;96875.74;609518;232;64893;-75
2022/12/22 11:24:22;;;;;;;;;;;;;;;28.24;37.93;96877.34;610388;232;64563;-73
2022/12/22 11:27:08;;;;;;;;;;;;;;;28.25;38.51;96878.92;610007;232;66900;-72
2022/12/22 11:29:40;;;;;;;;;;;;;;;28.25;39.60;96870.81;610345;232;62771;-72
2022/12/22 11:32:17;;;;;;;;;;;;;;;28.24;38.71;96874.64;609960;232;64951;-71
2022/12/22 11:34:55;;;;;;;;;;;;;;;28.26;34.36;96866.98;610415;232;64570;-71
2022/12/22 11:37:33;;;;;;;;;;;;;;;28.28;41.09;96875.57;609814;232;63710;-71
2022/12/22 11:40:05;;;;;;;;;;;;;;;28.29;38.89;96869.86;610074;232;66526;-71
2022/12/22 11:42:40;;;;;;;;;;;;;;;28.29;38.46;96864.45;610164;232;66911;-72
2022/12/22 11:45:21;;;;;;;;;;;;;;;28.31;39.93;96856.00;610423;232;65071;-69
2022/12/22 11:47:56;;;;;;;;;;;;;;;28.32;39.46;96854.91;600496;232;67315;-71
2022/12/22 11:50:34;;;;;;;;;;;;;;;28.33;40.98;96861.89;610165;232;66966;-70
2022/12/22 11:53:04;;;;;;;;;;;;;;;28.34;41.15;96864.25;610409;232;65310;-74
2022/12/22 11:55:33;;;;;;;;;;;;;;;28.33;41.83;96859.19;610332;232;66688;-73
2022/12/22 11:58:20;;;;;;;;;;;;;;;28.31;43.81;96864.11;610359;232;66721;-68
2022/12/22 12:01:04;;;;;;;;;;;;;;;28.30;41.97;96863.33;610114;232;65165;-68
2022/12/22 12:03:36;;;;;;;;;;;;;;;28.31;39.89;96864.91;610451;232;65122;-72
2022/12/22 12:06:18;;;;;;;;;;;;;;;28.29;41.67;96860.94;610368;232;67116;-73
2022/12/22 12:08:59;;;;;;;;;;;;;;;28.28;41.72;96862.84;610382;232;63147;-73
2022/12/22 12:11:36;;;;;;;;;;;;;;;28.27;40.09;96855.08;610146;232;64926;-70
2022/12/22 12:14:05;;;;;;;;;;;;;;;28.28;40.60;96851.25;610303;232;67071;-69
2022/12/22 12:16:40;;;;;;;;;;;;;;;28.26;41.32;96848.86;610182;232;65329;-73
2022/12/22 12:19:18;;;;;;;;;;;;;;;28.26;41.22;96856.17;610353;232;64875;-72
2022/12/22 12:21:47;;;;;;;;;;;;;;;28.24;43.39;96851.11;610084;232;72925;-68
2022/12/22 12:24:32;;;;;;;;;;;;;;;28.25;39.45;96843.80;610260;232;65098;-69
2022/12/22 12:27:04;;;;;;;;;;;;;;;28.24;41.22;96851.11;610415;232;67242;-70
2022/12/22 12:29:36;;;;;;;;;;;;;;;28.25;39.79;96843.80;608856;232;66768;-71
2022/12/22 12:32:07;;;;;;;;;;;;;;;28.24;41.74;96844.92;608646;233;45097;-71
2022/12/22 12:34:36;;;;;;;;;;;;;;;28.24;41.52;96847.63;608745;233;64928;-70
2022/12/22 12:37:08;;;;;;;;;;;;;;;28.23;41.03;96843.31;608749;233;65114;-70
2022/12/22 12:39:40;;;;;;;;;;;;;;;28.22;41.48;96849.84;608595;232;65074;-70
2022/12/22 12:42:09;;;;;;;;;;;;;;;28.23;40.82;96848.72;608689;232;64985;-70
2022/12/22 12:44:38;;;;;;;;;;;;;;;28.22;41.74;96850.63;604217;233;66931;-71
2022/12/22 12:47:10;;;;;;;;;;;;;;;28.21;42.00;96849.06;608798;233;63025;-70
2022/12/22 12:49:39;;;;;;;;;;;;;;;28.23;42.46;96846.02;608847;233;65798;-70
2022/12/22 12:52:11;;;;;;;;;;;;;;;28.21;40.65;96845.54;608747;233;64918;-68
2022/12/22 12:54:42;;;;;;;;;;;;;;;28.22;42.36;96844.44;608822;233;64909;-71
2022/12/22 12:57:24;;;;;;;;;;;;;;;28.20;41.98;96839.34;608710;233;66985;-69
2022/12/22 12:59:55;;;;;;;;;;;;;;;28.19;42.40;96835.07;608702;233;48209;-68
2022/12/22 13:02:30;;;;;;;;;;;;;;;28.20;43.64;96838.56;608772;233;62757;-71
2022/12/22 13:05:01;;;;;;;;;;;;;;;28.19;41.86;96840.47;608832;233;67486;-70
2022/12/22 13:07:46;;;;;;;;;;;;;;;28.20;42.16;96835.86;608793;233;67132;-71
2022/12/22 13:10:21;;;;;;;;;;;;;;;28.20;41.88;96830.45;608712;233;65135;-71
2022/12/22 13:12:50;;;;;;;;;;;;;;;28.20;42.65;96830.45;608709;233;64917;-72
2022/12/22 13:15:29;;;;;;;;;;;;;;;28.20;42.97;96830.45;608590;233;67013;-69
2022/12/22 13:17:57;;;;;;;;;;;;;;;28.19;42.02;96835.07;608763;233;64919;-71
2022/12/22 13:20:26;;;;;;;;;;;;;;;28.20;41.53;96827.75;608743;233;67312;-73
2022/12/22 13:22:58;;;;;;;;;;;;;;;28.20;41.40;96830.45;608839;233;64862;-69
2022/12/22 13:25:27;;;;;;;;;;;;;;;28.20;43.15;96830.45;608791;233;65475;-69
2022/12/22 13:27:56;;;;;;;;;;;;;;;28.20;43.85;96817.73;608769;232;67294;-69
2022/12/22 13:30:24;;;;;;;;;;;;;;;28.19;43.10;96823.47;605052;232;67072;-72
2022/12/22 13:32:52;;;;;;;;;;;;;;;28.19;42.24;96823.47;610448;232;64866;-70
2022/12/22 13:35:24;;;;;;;;;;;;;;;28.20;42.15;96822.34;610380;232;65092;-72
2022/12/22 13:37:56;;;;;;;;;;;;;;;28.20;41.81;96819.64;610438;232;65016;-71
2022/12/22 13:40:25;;;;;;;;;;;;;;;28.21;42.52;96821.22;610449;232;65067;-72
2022/12/22 13:42:54;;;;;;;;;;;;;;;28.21;43.55;96823.92;610393;232;65135;-71
2022/12/22 13:45:29;;;;;;;;;;;;;;;28.20;42.35;96827.75;610485;232;66927;-72
2022/12/22 13:47:59;;;;;;;;;;;;;;;28.21;43.26;96823.92;610365;232;62842;-71
2022/12/22 13:50:34;;;;;;;;;;;;;;;28.22;43.94;96829.02;610368;232;65109;-73
2022/12/22 13:53:02;;;;;;;;;;;;;;;28.21;43.43;96832.03;610403;232;65090;-71
2022/12/22 13:55:31;;;;;;;;;;;;;;;28.21;43.47;96832.84;610358;232;65077;-71
2022/12/22 13:58:00;;;;;;;;;;;;;;;28.22;41.70;96830.94;610368;232;67319;-71
2022/12/22 14:00:28;;;;;;;;;;;;;;;28.21;42.12;96832.03;610302;232;67070;-73
2022/12/22 14:02:57;;;;;;;;;;;;;;;28.22;42.90;96830.94;610367;232;65012;-72
2022/12/22 14:05:26;;;;;;;;;;;;;;;28.22;42.05;96830.94;610499;232;67256;-73
2022/12/22 14:08:00;;;;;;;;;;;;;;;28.22;43.58;96842.53;610225;232;66975;-72
2022/12/22 14:10:29;;;;;;;;;;;;;;;28.22;44.57;96829.02;610366;232;65201;-72
2022/12/22 14:12:56;;;;;;;;;;;;;;;28.21;42.49;96827.44;610442;232;64605;-69
2022/12/22 14:15:24;;;;;;;;;;;;;;;28.23;41.96;96829.80;610418;232;64864;-71
2022/12/22 14:17:52;;;;;;;;;;;;;;;28.22;42.94;96831.72;610388;232;63010;-70
2022/12/22 14:20:36;;;;;;;;;;;;;;;28.22;41.91;96828.23;610450;232;65115;-69
2022/12/22 14:23:14;;;;;;;;;;;;;;;28.23;44.34;96843.31;610403;232;64972;-68
2022/12/22 14:25:43;;;;;;;;;;;;;;;28.23;43.66;96848.72;609999;232;65071;-71
2022/12/22 14:28:31;;;;;;;;;;;;;;;28.22;42.48;96842.53;609883;232;67079;-72
2022/12/22 14:30:59;;;;;;;;;;;;;;;28.22;43.32;96844.44;608694;232;66862;-71
2022/12/22 14:33:29;;;;;;;;;;;;;;;28.24;43.20;96844.92;608767;233;62962;-73
2022/12/22 14:36:14;;;;;;;;;;;;;;;28.23;43.41;96843.31;608810;233;67214;-72
2022/12/22 14:38:49;;;;;;;;;;;;;;;28.22;44.35;96842.53;608760;233;67244;-72
2022/12/22 14:44:06;;;;;;;;;;;;;;;28.23;40.75;96846.02;608737;233;65057;-73
2022/12/22 14:46:34;;;;;;;;;;;;;;;28.22;43.35;96847.93;608770;233;64977;-71
2022/12/22 14:49:05;;;;;;;;;;;;;;;28.21;43.31;96848.24;608789;233;63020;-72
2022/12/22 14:51:35;;;;;;;;;;;;;;;28.19;43.62;96847.79;608556;232;47109;-71
2022/12/22 14:54:07;;;;;;;;;;;;;;;28.19;42.09;96853.20;608772;233;67075;-72
2022/12/22 14:56:38;;;;;;;;;;;;;;;28.18;42.43;96848.89;608771;233;45084;-69
2022/12/22 14:59:10;;;;;;;;;;;;;;;28.18;41.84;96846.19;608440;232;65035;-70
2022/12/22 15:01:39;;;;;;;;;;;;;;;28.17;42.62;96842.70;608573;233;64720;-72
2022/12/22 15:04:19;;;;;;;;;;;;;;;28.17;44.27;96848.10;608723;233;64668;-71
2022/12/22 15:06:51;;;;;;;;;;;;;;;28.17;43.31;96847.31;608549;233;46668;-71
2022/12/22 15:09:20;;;;;;;;;;;;;;;28.17;41.63;96847.31;608799;233;67001;-71
2022/12/22 15:11:52;;;;;;;;;;;;;;;28.17;43.06;96858.91;608771;232;43562;-71
2022/12/22 15:14:22;;;;;;;;;;;;;;;28.16;44.09;96851.14;608727;233;67883;-72
2022/12/22 15:16:50;;;;;;;;;;;;;;;28.17;44.18;96852.72;608774;233;64821;-72
2022/12/22 15:19:21;;;;;;;;;;;;;;;28.16;42.98;96848.44;608742;233;62822;-74
2022/12/22 15:21:51;;;;;;;;;;;;;;;28.16;42.80;96851.93;608825;233;48290;-74
2022/12/22 15:24:20;;;;;;;;;;;;;;;28.17;42.82;96852.72;608810;233;47086;-73
2022/12/22 15:26:48;;;;;;;;;;;;;;;28.17;42.23;96853.50;608820;233;64902;-72
2022/12/22 15:29:15;;;;;;;;;;;;;;;28.17;42.07;96850.80;608690;232;66768;-73
2022/12/22 15:31:43;;;;;;;;;;;;;;;28.17;43.50;96842.70;608758;233;66957;-72
2022/12/22 15:34:18;;;;;;;;;;;;;;;28.18;44.32;96855.08;608759;233;65712;-73
2022/12/22 15:36:45;;;;;;;;;;;;;;;28.18;42.95;96859.70;608681;232;65098;-73
2022/12/22 15:39:15;;;;;;;;;;;;;;;28.19;42.22;96856.69;608768;233;66902;-73
2022/12/22 15:41:44;;;;;;;;;;;;;;;28.19;43.11;96866.70;608694;232;65017;-73
2022/12/22 15:44:11;;;;;;;;;;;;;;;28.19;43.42;96864.00;608677;233;67037;-73
2022/12/22 15:46:40;;;;;;;;;;;;;;;28.19;43.57;96862.09;608738;233;66845;-71
2022/12/22 15:49:15;;;;;;;;;;;;;;;28.20;44.41;96862.88;608818;233;62719;-73
2022/12/22 15:51:44;;;;;;;;;;;;;;;28.19;43.67;96862.09;608368;232;66851;-73
2022/12/22 15:54:13;;;;;;;;;;;;;;;28.21;43.26;96867.16;608765;233;64608;-73
2022/12/22 15:56:41;;;;;;;;;;;;;;;28.21;44.16;96869.86;608542;233;64761;-71
2022/12/22 15:59:10;;;;;;;;;;;;;;;28.20;43.68;96866.37;608739;233;65476;-70
2022/12/22 16:01:38;;;;;;;;;;;;;;;28.21;41.98;96856.34;608852;233;66861;-72
2022/12/22 16:04:05;;;;;;;;;;;;;;;28.22;43.31;96871.46;608902;233;65020;-69
2022/12/22 16:06:33;;;;;;;;;;;;;;;28.23;44.42;96862.23;608853;233;66926;-71
2022/12/22 16:09:00;;;;;;;;;;;;;;;28.23;43.38;96862.23;608835;233;66691;-71
2022/12/22 16:11:27;;;;;;;;;;;;;;;28.23;42.77;96867.63;608796;233;64961;-71
2022/12/22 16:13:55;;;;;;;;;;;;;;;28.24;43.98;96866.53;608832;233;64448;-71
2022/12/22 16:16:22;;;;;;;;;;;;;;;28.24;43.71;96871.94;608904;233;64404;-71
2022/12/22 16:18:50;;;;;;;;;;;;;;;28.23;43.46;96873.83;608815;233;62743;-71
2022/12/22 16:21:19;;;;;;;;;;;;;;;28.23;44.34;96865.72;608815;233;67079;-71
2022/12/22 16:23:48;;;;;;;;;;;;;;;28.25;43.90;96878.92;608781;233;65123;-70
2022/12/22 16:26:17;;;;;;;;;;;;;;;28.24;42.80;96875.43;608816;233;62927;-71
2022/12/22 16:28:45;;;;;;;;;;;;;;;28.26;43.32;96877.80;608860;232;67687;-70
2022/12/22 16:31:17;;;;;;;;;;;;;;;28.27;44.21;96882.10;608847;233;67026;-71
2022/12/22 16:33:45;;;;;;;;;;;;;;;28.26;43.50;96881.28;608836;233;65245;-71
2022/12/22 16:36:12;;;;;;;;;;;;;;;28.26;42.21;96875.09;608838;233;67349;-71
2022/12/22 16:38:40;;;;;;;;;;;;;;;28.27;43.02;96876.70;608784;233;66903;-71
2022/12/22 16:41:09;;;;;;;;;;;;;;;28.26;42.49;96872.39;608917;233;63017;-71
2022/12/22 16:43:38;;;;;;;;;;;;;;;28.28;42.60;96878.27;608542;232;64749;-71
2022/12/22 16:46:06;;;;;;;;;;;;;;;28.27;43.02;96876.70;608836;233;67061;-71
2022/12/22 16:48:41;;;;;;;;;;;;;;;28.26;42.83;96870.48;608814;233;65084;-71